Time;durP1;ratioP1;P1;durP2;ratioP2;P2;SDS_P1;SDS_P2;PMS_P1;PMS_P2;Temp;Humidity;BMP_temperature;BMP_pressure;BME280_temperature;BME280_humidity;BME280_pressure;Samples;Min_cycle;Max_cycle;Signal;HPM_P1;HPM_P2
2022/03/30 00:00:23;;;;;;;14.40;9.83;;;;;;;8.33;62.13;96594.16;6178373;28;20705;-82
2022/03/30 00:03:25;;;;;;;13.40;9.97;;;;;;;8.32;62.66;96595.13;6162361;28;20236;-82
2022/03/30 00:06:28;;;;;;;10.43;8.33;;;;;;;8.28;62.78;96584.03;6178875;28;20224;-82
2022/03/30 00:09:32;;;;;;;12.37;9.40;;;;;;;8.27;62.88;96589.44;6182852;28;20234;-82
2022/03/30 00:12:34;;;;;;;12.63;9.07;;;;;;;8.27;63.27;96590.25;6192803;28;20238;-81
2022/03/30 00:15:37;;;;;;;12.87;8.77;;;;;;;8.24;63.35;96594.94;6177435;28;20231;-81
2022/03/30 00:18:39;;;;;;;10.07;7.80;;;;;;;8.24;63.13;96594.94;6178189;28;20627;-81
2022/03/30 00:21:41;;;;;;;15.33;10.77;;;;;;;8.25;63.46;96592.19;6162697;28;20260;-82
2022/03/30 00:24:44;;;;;;;14.67;11.33;;;;;;;8.19;63.50;96597.13;6179566;28;20226;-81
2022/03/30 00:27:47;;;;;;;15.07;10.67;;;;;;;8.14;63.97;96598.38;6168074;28;20246;-82
2022/03/30 00:30:49;;;;;;;17.33;11.10;;;;;;;8.09;64.00;96605.81;6182150;28;20692;-82
2022/03/30 00:33:52;;;;;;;16.07;10.57;;;;;;;8.07;63.46;96596.44;6182599;28;20314;-81
2022/03/30 00:36:54;;;;;;;19.30;12.00;;;;;;;8.10;64.52;96602.25;6179487;28;20229;-82
2022/03/30 00:39:56;;;;;;;16.73;9.83;;;;;;;8.15;64.53;96600.06;6178366;28;20228;-82
2022/03/30 00:42:58;;;;;;;13.17;9.57;;;;;;;8.17;64.20;96592.03;6161897;28;20314;-82
2022/03/30 00:46:01;;;;;;;12.20;9.30;;;;;;;8.20;63.84;96589.13;6179513;28;20233;-82
2022/03/30 00:49:07;;;;;;;11.80;8.60;;;;;;;8.20;64.63;96591.75;6178909;28;20731;-82
2022/03/30 00:52:09;;;;;;;19.50;10.13;;;;;;;8.23;64.34;96595.91;6168565;28;20245;-82
2022/03/30 00:55:13;;;;;;;11.73;9.13;;;;;;;8.21;64.85;96584.69;6184114;28;20229;-82
2022/03/30 00:58:16;;;;;;;15.33;10.50;;;;;;;8.18;64.87;96585.81;6170799;28;20715;-81
2022/03/30 01:01:20;;;;;;;11.70;8.37;;;;;;;8.13;65.17;96590.63;6161449;28;20571;-82
2022/03/30 01:04:22;;;;;;;12.23;8.70;;;;;;;8.13;65.30;96585.38;6179508;28;20717;-82
2022/03/30 01:07:25;;;;;;;12.40;9.60;;;;;;;8.16;64.83;96587.75;6160862;28;20235;-82
2022/03/30 01:10:27;;;;;;;11.33;8.60;;;;;;;8.15;65.10;96586.09;6184059;28;20236;-81
2022/03/30 01:13:29;;;;;;;10.93;8.23;;;;;;;8.12;65.26;96581.09;6177760;28;20228;-81
2022/03/30 01:16:52;;;;;;;11.93;8.50;;;;;;;8.07;65.44;96580.69;6179253;28;20233;-82
2022/03/30 01:19:54;;;;;;;14.10;8.57;;;;;;;8.02;65.37;96585.50;6178800;28;20724;-81
2022/03/30 01:22:56;;;;;;;12.53;8.33;;;;;;;7.95;65.58;96579.94;6177812;28;20236;-81
2022/03/30 01:25:58;;;;;;;11.03;7.70;;;;;;;7.90;65.66;96576.88;6178566;28;20240;-81
2022/03/30 01:32:25;;;;;;;13.93;10.03;;;;;;;7.87;65.73;96577.16;6177546;28;20237;-82
2022/03/30 01:32:26;;;;;;;11.23;8.80;;;;;;;7.80;66.23;96576.00;6177836;28;20666;-81
2022/03/30 01:35:29;;;;;;;13.53;10.37;;;;;;;7.75;66.10;96576.44;6182490;28;20240;-82
2022/03/30 01:38:31;;;;;;;13.90;9.30;;;;;;;7.66;66.51;96566.72;6194644;28;20232;-81
2022/03/30 01:41:33;;;;;;;12.77;9.57;;;;;;;7.60;66.53;96569.03;6164057;28;20265;-82
2022/03/30 01:44:37;;;;;;;16.47;10.77;;;;;;;7.47;66.73;96561.41;6182030;28;20231;-81
2022/03/30 01:47:40;;;;;;;16.40;10.80;;;;;;;7.37;66.67;96553.47;6182232;28;20229;-82
2022/03/30 01:50:43;;;;;;;17.13;10.47;;;;;;;7.27;67.20;96557.03;6183516;28;20282;-82
2022/03/30 01:53:45;;;;;;;15.03;10.30;;;;;;;7.12;67.16;96561.75;6183615;28;20245;-82
2022/03/30 01:56:49;;;;;;;13.73;10.10;;;;;;;7.06;67.50;96548.34;6182832;28;20230;-81
2022/03/30 01:59:51;;;;;;;16.03;10.27;;;;;;;7.00;67.60;96557.53;6180481;28;20226;-82
2022/03/30 02:02:53;;;;;;;13.63;9.20;;;;;;;6.95;67.47;96557.09;6180205;28;20328;-81
2022/03/30 02:05:55;;;;;;;13.77;9.80;;;;;;;6.90;68.42;96557.47;6164424;28;20710;-82
2022/03/30 02:08:58;;;;;;;12.57;8.93;;;;;;;6.89;68.18;96547.94;6180660;28;20225;-82
2022/03/30 02:12:00;;;;;;;16.63;10.07;;;;;;;6.90;68.21;96543.53;6205038;28;20239;-81
2022/03/30 02:15:03;;;;;;;16.93;11.53;;;;;;;6.90;68.71;96548.78;6133841;28;20243;-82
2022/03/30 02:18:06;;;;;;;15.50;10.73;;;;;;;6.86;69.15;96548.22;6169946;28;20231;-81
2022/03/30 02:21:08;;;;;;;14.27;9.73;;;;;;;6.85;68.93;96545.72;6167464;28;20236;-81
2022/03/30 02:24:10;;;;;;;13.50;10.43;;;;;;;6.81;68.85;96539.06;6155865;28;20705;-82
2022/03/30 02:27:12;;;;;;;14.17;9.90;;;;;;;6.77;68.78;96537.66;6164821;28;20330;-81
2022/03/30 02:30:15;;;;;;;15.93;10.43;;;;;;;6.74;68.95;96544.00;6180591;28;20233;-81
2022/03/30 02:33:17;;;;;;;14.53;10.67;;;;;;;6.70;68.91;96544.34;6164468;28;20580;-81
2022/03/30 02:36:19;;;;;;;14.10;10.13;;;;;;;6.63;69.48;96538.81;6164421;28;20616;-81
2022/03/30 02:39:21;;;;;;;16.70;10.90;;;;;;;6.59;69.70;96535.59;6180471;28;20257;-82
2022/03/30 02:42:24;;;;;;;16.17;10.83;;;;;;;6.52;69.70;96531.81;6163280;28;20237;-82
2022/03/30 02:45:26;;;;;;;18.23;11.93;;;;;;;6.41;69.57;96531.88;6180165;28;20712;-82
2022/03/30 02:48:28;;;;;;;15.93;11.40;;;;;;;6.28;70.37;96539.09;6164030;28;20245;-82
2022/03/30 02:51:31;;;;;;;15.10;10.70;;;;;;;6.24;70.17;96532.41;6179769;28;20373;-81
2022/03/30 02:54:33;;;;;;;15.90;11.73;;;;;;;6.16;70.32;96534.84;6180088;28;20231;-81
2022/03/30 02:57:36;;;;;;;17.07;10.70;;;;;;;6.08;70.10;96524.16;6179948;28;20237;-82
2022/03/30 03:00:39;;;;;;;16.70;12.53;;;;;;;6.02;70.09;96541.19;6179334;28;20227;-81
2022/03/30 03:03:42;;;;;;;17.03;12.53;;;;;;;5.95;70.84;96532.16;6181820;28;20244;-81
2022/03/30 03:06:44;;;;;;;17.23;11.70;;;;;;;5.83;70.99;96531.31;6163666;28;20373;-81
2022/03/30 03:09:46;;;;;;;14.67;11.17;;;;;;;5.74;71.13;96537.28;6180538;28;20746;-82
2022/03/30 03:12:48;;;;;;;18.20;12.43;;;;;;;5.64;71.48;96523.25;6180284;28;20615;-82
2022/03/30 03:15:50;;;;;;;17.63;12.47;;;;;;;5.57;71.23;96525.53;6179292;28;20623;-81
2022/03/30 03:18:53;;;;;;;21.10;12.73;;;;;;;5.50;71.77;96524.34;6179332;28;20233;-81
2022/03/30 03:21:55;;;;;;;19.27;12.67;;;;;;;5.45;71.53;96520.44;6163529;28;20274;-82
2022/03/30 03:24:57;;;;;;;17.47;12.47;;;;;;;5.37;71.68;96515.81;6179877;28;20225;-82
2022/03/30 03:28:01;;;;;;;17.67;12.47;;;;;;;5.32;71.50;96520.53;6179228;28;20641;-82
2022/03/30 03:31:04;;;;;;;21.13;13.03;;;;;;;5.26;72.49;96513.19;6181229;28;20230;-81
2022/03/30 03:34:08;;;;;;;23.50;13.33;;;;;;;5.24;72.31;96519.47;6179948;28;20615;-82
2022/03/30 03:37:11;;;;;;;20.00;13.47;;;;;;;5.20;72.53;96519.72;6178760;28;20711;-82
2022/03/30 03:40:13;;;;;;;16.70;12.60;;;;;;;5.16;72.91;96527.94;6162581;28;20264;-81
2022/03/30 03:43:15;;;;;;;20.00;13.47;;;;;;;5.16;73.15;96526.16;6178429;28;20237;-82
2022/03/30 03:46:17;;;;;;;20.03;13.30;;;;;;;5.17;73.22;96517.34;6177658;28;20330;-81
2022/03/30 03:49:19;;;;;;;21.93;14.60;;;;;;;5.14;73.21;96522.81;6194315;28;20243;-81
2022/03/30 03:52:21;;;;;;;19.17;13.53;;;;;;;5.10;73.03;96525.75;6158069;28;20229;-82
2022/03/30 03:55:24;;;;;;;19.43;13.90;;;;;;;5.05;73.46;96528.75;6179003;28;20228;-82
2022/03/30 03:58:26;;;;;;;20.03;13.53;;;;;;;5.03;73.28;96525.41;6177824;28;20239;-82
2022/03/30 04:01:29;;;;;;;18.47;11.83;;;;;;;5.01;73.65;96523.84;6179360;28;20266;-82
2022/03/30 04:04:32;;;;;;;18.77;13.43;;;;;;;4.96;73.73;96520.78;6177362;28;20229;-81
2022/03/30 04:07:34;;;;;;;22.07;14.23;;;;;;;4.90;73.44;96516.00;6177582;28;20259;-82
2022/03/30 04:10:36;;;;;;;21.53;15.00;;;;;;;4.82;74.26;96517.41;6182379;28;20243;-81
2022/03/30 04:13:38;;;;;;;21.17;14.77;;;;;;;4.76;74.43;96515.28;6179037;28;20598;-81
2022/03/30 04:16:41;;;;;;;23.27;16.67;;;;;;;4.71;74.52;96516.56;6178793;28;20225;-81
2022/03/30 04:19:43;;;;;;;23.97;15.33;;;;;;;4.68;74.93;96517.66;6178008;28;20238;-81
2022/03/30 04:22:47;;;;;;;19.40;14.40;;;;;;;4.63;74.76;96525.00;6179089;28;20241;-81
2022/03/30 04:25:50;;;;;;;22.37;16.23;;;;;;;4.61;74.71;96513.81;6178147;28;20225;-81
2022/03/30 04:28:52;;;;;;;23.07;13.80;;;;;;;4.58;74.74;96506.22;6161281;28;20244;-81
2022/03/30 04:31:54;;;;;;;19.20;13.10;;;;;;;4.60;74.32;96506.91;6167185;28;20239;-81
2022/03/30 04:34:56;;;;;;;19.73;13.97;;;;;;;4.64;74.96;96505.75;6166271;28;20619;-81
2022/03/30 04:37:59;;;;;;;22.20;14.83;;;;;;;4.66;74.61;96506.47;6179438;28;20639;-81
2022/03/30 04:41:01;;;;;;;23.57;17.90;;;;;;;4.65;74.89;96501.34;6177851;28;20727;-82
2022/03/30 04:44:03;;;;;;;21.73;15.93;;;;;;;4.66;75.38;96501.25;6179315;28;20239;-81
2022/03/30 04:47:05;;;;;;;19.53;13.97;;;;;;;4.69;75.22;96503.59;6179163;28;20243;-81
2022/03/30 04:50:09;;;;;;;21.03;15.30;;;;;;;4.72;75.33;96506.00;6154108;28;20276;-82
2022/03/30 04:53:11;;;;;;;21.93;16.10;;;;;;;4.69;75.74;96501.00;6171517;28;20780;-81
2022/03/30 04:56:14;;;;;;;22.67;14.47;;;;;;;4.67;75.95;96507.31;6177323;28;20738;-81
2022/03/30 04:59:16;;;;;;;21.53;16.10;;;;;;;4.72;75.72;96507.78;6177038;28;20247;-81
2022/03/30 05:02:18;;;;;;;26.43;18.97;;;;;;;4.72;75.88;96510.38;6177167;28;20228;-82
2022/03/30 05:05:20;;;;;;;23.63;15.93;;;;;;;4.73;75.40;96518.13;6179158;28;20224;-81
2022/03/30 05:08:22;;;;;;;16.60;12.73;;;;;;;4.78;75.51;96523.00;6164360;28;20225;-81
2022/03/30 05:11:25;;;;;;;23.43;15.70;;;;;;;4.85;75.63;96521.59;6191728;28;20267;-82
2022/03/30 05:14:27;;;;;;;22.50;16.73;;;;;;;4.90;75.53;96509.00;6178961;28;20256;-82
2022/03/30 05:17:29;;;;;;;29.07;17.03;;;;;;;4.93;75.57;96506.16;6181429;28;20721;-81
2022/03/30 05:20:31;;;;;;;29.23;18.00;;;;;;;5.01;75.68;96503.78;6170155;28;20709;-81
2022/03/30 05:23:36;;;;;;;20.13;15.73;;;;;;;5.10;75.45;96486.53;6162297;28;20240;-81
2022/03/30 05:26:38;;;;;;;22.90;16.60;;;;;;;5.22;75.58;96492.59;6182386;28;20228;-81
2022/03/30 05:29:40;;;;;;;25.67;16.70;;;;;;;5.34;75.31;96494.28;6183092;28;20309;-81
2022/03/30 05:32:45;;;;;;;22.37;16.13;;;;;;;5.42;74.52;96479.63;6181824;28;20570;-81
2022/03/30 05:35:50;;;;;;;24.47;17.43;;;;;;;5.54;75.14;96489.13;6182877;28;20792;-82
2022/03/30 05:38:52;;;;;;;24.70;18.30;;;;;;;5.68;75.15;96492.44;6165291;28;20236;-81
2022/03/30 05:41:54;;;;;;;25.70;17.13;;;;;;;5.79;75.23;96495.03;6183303;28;20229;-81
2022/03/30 05:44:56;;;;;;;23.77;18.07;;;;;;;5.91;74.81;96497.53;6164935;28;20709;-81
2022/03/30 05:47:59;;;;;;;22.93;16.97;;;;;;;6.03;74.62;96495.69;6182366;28;20235;-82
2022/03/30 05:51:02;;;;;;;22.40;16.53;;;;;;;6.13;74.65;96499.25;6141035;28;20234;-82
2022/03/30 05:54:05;;;;;;;21.60;16.30;;;;;;;6.25;74.47;96497.41;6180891;28;20265;-81
2022/03/30 05:57:07;;;;;;;26.13;15.97;;;;;;;6.38;73.94;96500.69;6164099;28;20248;-81
2022/03/30 06:00:10;;;;;;;21.40;15.10;;;;;;;6.55;73.35;96492.25;6180565;28;20221;-81
2022/03/30 06:03:16;;;;;;;24.23;17.10;;;;;;;6.71;73.43;96497.03;6180641;28;20674;-82
2022/03/30 06:06:18;;;;;;;22.20;15.30;;;;;;;6.85;73.27;96495.91;6180521;28;20213;-81
2022/03/30 06:09:21;;;;;;;21.50;16.20;;;;;;;6.94;72.87;96495.13;6183190;28;20246;-81
2022/03/30 06:12:40;;;;;;;20.47;14.50;;;;;;;7.06;72.68;96488.84;6158742;28;20261;-81
2022/03/30 06:15:42;;;;;;;21.47;15.13;;;;;;;7.19;72.28;96484.19;6174747;28;20241;-82
2022/03/30 06:18:44;;;;;;;21.63;13.70;;;;;;;7.34;72.07;96482.03;6181710;28;20219;-82
2022/03/30 06:21:48;;;;;;;18.23;13.33;;;;;;;7.54;71.53;96475.06;6164450;28;20232;-81
2022/03/30 06:24:50;;;;;;;18.97;13.57;;;;;;;7.73;71.58;96470.69;6182138;28;20227;-82
2022/03/30 06:27:54;;;;;;;20.50;14.97;;;;;;;7.92;70.83;96472.50;6163380;28;20221;-82
2022/03/30 06:30:57;;;;;;;15.27;11.83;;;;;;;8.10;70.62;96481.38;6181322;28;20227;-82
2022/03/30 06:33:59;;;;;;;15.70;12.93;;;;;;;8.33;69.40;96473.25;6184124;28;20252;-82
2022/03/30 06:37:01;;;;;;;17.10;11.87;;;;;;;8.60;69.30;96475.16;6179377;28;20245;-81
2022/03/30 06:40:04;;;;;;;17.50;12.23;;;;;;;8.83;68.85;96468.63;6185871;28;20239;-82
2022/03/30 06:43:06;;;;;;;20.43;13.93;;;;;;;9.02;67.72;96479.09;6180007;28;20254;-82
2022/03/30 06:46:10;;;;;;;17.47;12.43;;;;;;;9.22;67.18;96477.22;6156048;28;20706;-82
2022/03/30 06:49:12;;;;;;;18.03;12.67;;;;;;;9.35;67.13;96476.91;6165810;28;20233;-82
2022/03/30 06:52:14;;;;;;;13.80;11.13;;;;;;;9.47;67.13;96479.22;6175777;28;20230;-82
2022/03/30 06:55:16;;;;;;;21.27;13.83;;;;;;;9.71;66.34;96473.38;6178367;28;20235;-82
2022/03/30 06:58:19;;;;;;;18.27;13.43;;;;;;;10.01;64.87;96477.50;6180924;28;20813;-82
2022/03/30 07:01:21;;;;;;;25.87;17.70;;;;;;;10.32;63.08;96480.63;6181145;28;20411;-82
2022/03/30 07:04:23;;;;;;;22.50;16.60;;;;;;;10.54;60.35;96472.28;6179679;28;20262;-82
2022/03/30 07:10:46;;;;;;;26.73;16.93;;;;;;;10.83;59.09;96481.72;6192305;28;20594;-82
2022/03/30 07:13:49;;;;;;;23.43;17.50;;;;;;;10.93;58.77;96482.44;6190553;28;20267;-82
2022/03/30 07:16:51;;;;;;;24.50;16.90;;;;;;;11.15;58.38;96478.47;6162189;28;20743;-82
2022/03/30 07:19:54;;;;;;;22.33;17.27;;;;;;;11.30;58.43;96480.38;6178675;28;20537;-82
2022/03/30 07:22:58;;;;;;;24.03;16.37;;;;;;;11.38;57.11;96472.47;6179202;28;20242;-82
2022/03/30 07:26:00;;;;;;;22.87;17.60;;;;;;;11.37;57.69;96470.03;6163362;28;20261;-82
2022/03/30 07:29:02;;;;;;;24.07;17.37;;;;;;;11.58;57.22;96472.25;6178447;28;20245;-82
2022/03/30 07:32:05;;;;;;;25.03;17.73;;;;;;;11.61;56.42;96471.91;6179222;28;20233;-83
2022/03/30 07:35:09;;;;;;;20.60;15.73;;;;;;;11.81;56.24;96468.06;6180019;28;20249;-82
2022/03/30 07:38:11;;;;;;;23.77;16.80;;;;;;;12.01;55.72;96468.63;6162426;28;20229;-82
2022/03/30 07:41:13;;;;;;;22.83;16.17;;;;;;;12.09;55.32;96473.91;6162879;28;20337;-82
2022/03/30 07:44:15;;;;;;;24.43;18.03;;;;;;;12.01;55.39;96469.44;6179513;28;20601;-82
2022/03/30 07:47:18;;;;;;;22.80;17.47;;;;;;;12.00;55.42;96466.94;6165820;28;20772;-83
2022/03/30 07:50:20;;;;;;;23.93;17.30;;;;;;;11.95;55.63;96464.81;6164276;28;20324;-83
2022/03/30 07:53:23;;;;;;;30.10;17.97;;;;;;;11.90;54.86;96455.69;6180412;28;20226;-83
2022/03/30 07:56:25;;;;;;;26.07;19.17;;;;;;;11.68;55.91;96454.47;6181015;28;20242;-82
2022/03/30 07:59:27;;;;;;;20.97;16.47;;;;;;;11.92;55.74;96464.28;6180129;28;20237;-82
2022/03/30 08:02:30;;;;;;;20.90;15.43;;;;;;;12.39;55.00;96464.53;6177712;28;20237;-82
2022/03/30 08:05:32;;;;;;;24.40;17.43;;;;;;;12.73;53.99;96461.75;6162138;28;20819;-83
2022/03/30 08:08:34;;;;;;;20.90;15.37;;;;;;;13.06;53.76;96465.19;6177786;28;20808;-82
2022/03/30 08:11:38;;;;;;;23.53;18.37;;;;;;;13.05;52.94;96458.25;6179310;28;20240;-82
2022/03/30 08:14:43;;;;;;;28.30;19.30;;;;;;;12.85;52.72;96463.06;6178546;28;20224;-82
2022/03/30 08:17:46;;;;;;;24.37;18.80;;;;;;;12.62;53.28;96462.91;6162546;28;20694;-83
2022/03/30 08:24:08;;;;;;;27.73;18.83;;;;;;;12.27;54.07;96448.19;6179244;28;20255;-82
2022/03/30 08:27:11;;;;;;;25.33;18.77;;;;;;;12.23;54.83;96451.31;6178568;28;20219;-82
2022/03/30 08:30:13;;;;;;;21.87;17.07;;;;;;;12.62;54.21;96449.66;6177609;28;20616;-82
2022/03/30 08:33:18;;;;;;;25.23;17.63;;;;;;;13.06;52.99;96442.19;6163500;28;20211;-82
2022/03/30 08:36:20;;;;;;;28.87;20.87;;;;;;;13.25;52.03;96447.13;6177793;28;20575;-82
2022/03/30 08:39:22;;;;;;;30.67;19.63;;;;;;;13.09;52.62;96446.28;6177743;28;20798;-82
2022/03/30 08:42:25;;;;;;;24.03;18.57;;;;;;;13.12;52.22;96444.16;6177685;28;20596;-83
2022/03/30 08:45:27;;;;;;;27.37;18.13;;;;;;;13.43;51.57;96449.56;6177451;28;20242;-82
2022/03/30 08:48:29;;;;;;;29.37;18.73;;;;;;;13.85;50.61;96446.56;6177949;28;20248;-83
2022/03/30 08:51:37;;;;;;;26.97;18.77;;;;;;;13.55;50.73;96437.59;6166059;28;20330;-82
2022/03/30 08:54:47;;;;;;;24.77;19.67;;;;;;;13.60;51.30;96437.06;6166541;28;20458;-82
2022/03/30 08:57:49;;;;;;;22.20;17.00;;;;;;;13.77;50.80;96446.63;6182604;28;20236;-83
2022/03/30 09:00:53;;;;;;;25.87;16.67;;;;;;;13.65;50.88;96443.50;6182131;28;20368;-83
2022/03/30 09:03:57;;;;;;;28.33;18.37;;;;;;;13.64;51.00;96443.69;6183702;28;20236;-83
2022/03/30 09:06:59;;;;;;;21.93;16.73;;;;;;;13.80;50.52;96443.59;6182059;28;20229;-82
2022/03/30 09:10:02;;;;;;;23.93;16.43;;;;;;;13.75;50.80;96427.41;6191058;28;20236;-83
2022/03/30 09:13:05;;;;;;;23.97;17.77;;;;;;;13.44;51.41;96415.94;6215991;28;20238;-82
2022/03/30 09:16:09;;;;;;;24.00;18.33;;;;;;;13.49;51.34;96409.09;6166018;28;20599;-83
2022/03/30 09:19:14;;;;;;;22.77;17.73;;;;;;;13.25;51.55;96415.34;6182070;28;20232;-82
2022/03/30 09:22:16;;;;;;;24.47;16.27;;;;;;;13.45;51.84;96405.16;6182232;28;20241;-82
2022/03/30 09:25:22;;;;;;;25.33;16.80;;;;;;;13.41;51.50;96406.50;6166092;28;20240;-82
2022/03/30 09:28:24;;;;;;;24.10;18.13;;;;;;;13.42;51.45;96408.16;6182035;28;20238;-82
2022/03/30 09:31:27;;;;;;;22.43;16.77;;;;;;;13.72;51.34;96408.34;6181965;28;20629;-82
2022/03/30 09:34:50;;;;;;;26.00;18.80;;;;;;;13.88;51.30;96394.97;6181103;28;20249;-83
2022/03/30 09:38:13;;;;;;;28.93;19.27;;;;;;;13.61;51.11;96399.78;6174666;28;20243;-83
2022/03/30 09:41:15;;;;;;;21.37;16.23;;;;;;;13.80;50.70;96393.22;6181440;28;20230;-82
2022/03/30 09:44:18;;;;;;;19.07;15.37;;;;;;;14.02;50.20;96388.94;6181507;28;20629;-82
2022/03/30 09:47:23;;;;;;;22.40;16.27;;;;;;;14.02;50.22;96376.50;6183782;28;20707;-82
2022/03/30 09:50:52;;;;;;;20.23;15.90;;;;;;;14.25;49.47;96373.84;6181325;28;20240;-83
2022/03/30 09:53:54;;;;;;;22.93;18.37;;;;;;;14.28;49.69;96372.66;6181491;28;20233;-83
2022/03/30 09:56:56;;;;;;;20.43;15.87;;;;;;;14.20;49.55;96370.06;6180441;28;20596;-83
2022/03/30 10:00:12;;;;;;;20.70;15.50;;;;;;;14.21;49.34;96358.44;6197382;28;20237;-83
2022/03/30 10:03:14;;;;;;;26.90;18.13;;;;;;;13.99;49.52;96354.78;6180292;28;20237;-83
2022/03/30 10:06:28;;;;;;;22.43;17.57;;;;;;;13.81;49.80;96363.03;6180522;28;20312;-82
2022/03/30 10:09:39;;;;;;;18.47;15.30;;;;;;;13.90;50.59;96348.72;6180529;28;20260;-83
2022/03/30 10:12:42;;;;;;;24.47;16.47;;;;;;;14.15;49.23;96333.47;6180851;28;20221;-83
2022/03/30 10:15:44;;;;;;;19.27;15.87;;;;;;;14.26;49.00;96327.75;6180363;28;20262;-83
2022/03/30 10:18:51;;;;;;;22.83;15.37;;;;;;;13.98;49.02;96326.63;6180862;28;20737;-82
2022/03/30 10:21:54;;;;;;;21.17;15.10;;;;;;;14.05;48.93;96332.88;6180355;28;20228;-83
2022/03/30 10:25:09;;;;;;;28.90;16.37;;;;;;;13.93;48.57;96321.03;6180612;28;20364;-83
2022/03/30 10:28:25;;;;;;;19.97;15.17;;;;;;;14.16;48.38;96313.06;6180894;28;20663;-83
2022/03/30 10:31:30;;;;;;;22.23;15.60;;;;;;;14.51;48.14;96307.13;6179981;28;20701;-83
2022/03/30 10:34:32;;;;;;;19.23;15.00;;;;;;;14.83;47.47;96298.00;6160259;28;20636;-83
2022/03/30 10:37:41;;;;;;;18.70;15.07;;;;;;;15.14;46.87;96295.97;6180108;28;20233;-83
2022/03/30 10:40:44;;;;;;;17.10;13.83;;;;;;;15.40;46.26;96295.44;6163764;28;20244;-83
2022/03/30 10:43:47;;;;;;;18.97;14.80;;;;;;;15.35;45.99;96291.72;6179875;28;20253;-83
2022/03/30 10:47:13;;;;;;;19.83;15.90;;;;;;;14.86;47.14;96291.50;6166600;28;20234;-82
2022/03/30 10:50:49;;;;;;;21.20;16.40;;;;;;;15.12;45.88;96279.38;6163073;28;20244;-82
2022/03/30 10:53:52;;;;;;;19.93;14.87;;;;;;;15.22;46.29;96275.59;6152846;28;20233;-83
2022/03/30 10:56:54;;;;;;;20.30;16.20;;;;;;;15.40;45.56;96274.16;6145691;28;20237;-83
2022/03/30 11:00:16;;;;;;;15.90;13.33;;;;;;;15.71;45.75;96271.25;6177468;28;20594;-83
2022/03/30 11:03:20;;;;;;;23.77;15.70;;;;;;;15.85;44.36;96264.25;6148878;28;20228;-83
2022/03/30 11:06:23;;;;;;;20.50;14.77;;;;;;;15.95;44.10;96269.25;6176811;28;20317;-83
2022/03/30 11:09:30;;;;;;;21.20;14.60;;;;;;;15.97;43.75;96260.03;6166227;28;20711;-83
2022/03/30 11:13:02;;;;;;;21.10;14.17;;;;;;;16.06;43.08;96250.94;6154206;28;20849;-83
2022/03/30 11:16:11;;;;;;;42.40;15.77;;;;;;;16.26;42.82;96252.91;6138805;28;20686;-83
2022/03/30 11:19:14;;;;;;;17.63;13.67;;;;;;;16.43;43.00;96240.94;6136785;28;20237;-83
2022/03/30 11:22:33;;;;;;;22.83;14.90;;;;;;;16.55;42.16;96229.56;6148698;28;20245;-83
2022/03/30 11:25:51;;;;;;;15.00;12.63;;;;;;;16.87;41.62;96224.66;6160767;28;20319;-83
2022/03/30 11:28:54;;;;;;;20.13;14.20;;;;;;;17.15;41.42;96229.88;6179009;28;20320;-83
2022/03/30 11:31:56;;;;;;;20.87;15.60;;;;;;;17.27;41.26;96220.25;6178796;28;20235;-83
2022/03/30 11:35:06;;;;;;;21.30;15.50;;;;;;;16.55;42.10;96220.75;6195206;28;20228;-83
2022/03/30 11:38:27;;;;;;;21.87;15.27;;;;;;;16.65;41.96;96215.91;6179748;28;20230;-83
2022/03/30 11:41:29;;;;;;;18.20;13.77;;;;;;;16.76;41.79;96203.88;6179824;28;20237;-83
2022/03/30 11:47:55;;;;;;;21.97;14.40;;;;;;;17.25;41.11;96196.50;6177826;28;20233;-83
2022/03/30 11:50:58;;;;;;;22.50;13.63;;;;;;;17.17;41.14;96177.19;6178412;28;20248;-83
2022/03/30 11:54:20;;;;;;;19.97;13.87;;;;;;;17.50;40.35;96169.25;6162769;28;20243;-83
2022/03/30 11:57:23;;;;;;;17.77;13.33;;;;;;;17.67;40.44;96162.50;6132909;28;20234;-83
2022/03/30 12:00:28;;;;;;;16.87;12.87;;;;;;;17.56;39.83;96155.09;6151804;28;20229;-83
2022/03/30 12:03:31;;;;;;;23.50;14.33;;;;;;;17.34;40.59;96157.13;6165063;28;20574;-83
2022/03/30 12:06:33;;;;;;;18.60;13.70;;;;;;;17.26;40.32;96159.97;6177814;28;20229;-83
2022/03/30 12:09:45;;;;;;;19.23;14.27;;;;;;;16.89;40.98;96150.63;6182470;28;20216;-83
2022/03/30 12:12:49;;;;;;;17.87;13.53;;;;;;;16.78;41.54;96143.22;6192761;28;20240;-83
2022/03/30 12:16:14;;;;;;;17.63;12.53;;;;;;;16.88;41.11;96131.16;6177471;28;20233;-83
2022/03/30 12:19:16;;;;;;;17.20;13.13;;;;;;;17.11;40.92;96138.81;6177576;28;20244;-83
2022/03/30 12:22:20;;;;;;;18.43;13.10;;;;;;;16.88;41.12;96125.00;6161309;28;20693;-83
2022/03/30 12:25:23;;;;;;;14.20;12.30;;;;;;;16.77;40.54;96128.28;6177517;28;20557;-83
2022/03/30 12:28:33;;;;;;;17.17;11.77;;;;;;;16.73;41.11;96117.19;6177468;28;20237;-83
2022/03/30 12:31:38;;;;;;;17.73;13.33;;;;;;;16.76;41.26;96107.97;6179463;28;20240;-83
2022/03/30 12:34:40;;;;;;;15.53;13.10;;;;;;;16.73;41.72;96105.69;6161544;28;20834;-83
2022/03/30 12:37:46;;;;;;;17.00;12.57;;;;;;;16.84;41.21;96100.63;6178849;28;20236;-83
2022/03/30 12:40:52;;;;;;;19.40;14.03;;;;;;;16.73;41.41;96087.88;6161837;28;20241;-83
2022/03/30 12:43:59;;;;;;;19.17;12.17;;;;;;;16.75;41.83;96088.50;6179811;28;20724;-83
2022/03/30 12:47:03;;;;;;;14.57;11.33;;;;;;;17.01;41.46;96084.25;6177030;28;20241;-83
2022/03/30 12:50:14;;;;;;;15.03;13.33;;;;;;;16.97;41.09;96078.50;6176643;28;20229;-83
2022/03/30 12:53:17;;;;;;;18.23;14.13;;;;;;;16.86;42.22;96071.13;6177673;28;20226;-83
2022/03/30 12:56:20;;;;;;;19.80;13.53;;;;;;;16.56;41.53;96078.56;6179046;28;20279;-83
2022/03/30 12:59:28;;;;;;;23.83;14.27;;;;;;;16.44;41.89;96064.19;6176739;28;20240;-83
2022/03/30 13:02:31;;;;;;;18.03;13.37;;;;;;;16.33;42.48;96054.91;6176047;28;20225;-83
2022/03/30 13:05:37;;;;;;;18.13;12.30;;;;;;;16.53;41.62;96044.34;6178648;28;20724;-83
2022/03/30 13:08:39;;;;;;;15.13;11.17;;;;;;;16.36;42.23;96045.72;6178858;28;20237;-83
2022/03/30 13:11:46;;;;;;;19.90;13.30;;;;;;;16.49;41.75;96048.41;6184608;28;20236;-83
2022/03/30 13:14:49;;;;;;;18.10;12.07;;;;;;;16.73;41.64;96036.44;6176746;28;20609;-83
2022/03/30 13:18:00;;;;;;;17.83;13.03;;;;;;;16.49;40.90;96029.78;6178608;28;20237;-83
2022/03/30 13:21:09;;;;;;;17.60;11.77;;;;;;;16.70;40.28;96032.31;6177517;28;20674;-84
2022/03/30 13:24:12;;;;;;;17.90;10.70;;;;;;;16.56;40.51;96014.66;6177195;28;20283;-82
2022/03/30 13:27:14;;;;;;;13.43;10.73;;;;;;;16.93;39.96;96021.31;6161906;28;20236;-83
2022/03/30 13:30:22;;;;;;;17.93;11.73;;;;;;;16.97;39.21;96011.84;6161566;28;20237;-83
2022/03/30 13:33:24;;;;;;;16.27;11.60;;;;;;;17.09;38.83;96009.41;6176747;28;20232;-83
2022/03/30 13:36:27;;;;;;;12.43;10.73;;;;;;;16.98;38.66;96013.50;6180056;28;20233;-83
2022/03/30 13:39:29;;;;;;;12.93;9.67;;;;;;;17.05;38.79;96001.03;6165347;28;20253;-83
2022/03/30 13:42:34;;;;;;;12.33;9.87;;;;;;;17.10;38.74;96005.72;6164784;28;20581;-83
2022/03/30 13:45:37;;;;;;;15.77;10.33;;;;;;;17.20;38.35;96001.63;6181071;28;20230;-83
2022/03/30 13:48:40;;;;;;;12.63;9.03;;;;;;;17.26;38.54;96000.00;6145993;28;20244;-83
2022/03/30 13:51:44;;;;;;;12.97;10.23;;;;;;;16.96;38.29;95989.75;6180787;28;20232;-83
2022/03/30 13:54:46;;;;;;;16.67;10.93;;;;;;;16.73;38.85;95981.31;6163829;28;20740;-83
2022/03/30 13:57:49;;;;;;;14.27;9.87;;;;;;;16.56;39.55;95975.53;6181113;28;20758;-83
2022/03/30 14:00:52;;;;;;;14.53;11.10;;;;;;;16.28;40.20;95976.66;6164861;28;20233;-83
2022/03/30 14:03:54;;;;;;;13.13;10.37;;;;;;;16.25;40.33;95975.22;6180237;28;20227;-83
2022/03/30 14:06:57;;;;;;;16.20;10.87;;;;;;;16.06;40.92;95966.16;6164528;28;20225;-83
2022/03/30 14:09:59;;;;;;;15.73;10.30;;;;;;;15.87;41.40;95958.94;6189909;28;20228;-83
2022/03/30 14:13:02;;;;;;;11.13;9.07;;;;;;;16.21;41.07;95955.34;6199086;28;20236;-82
2022/03/30 14:16:05;;;;;;;12.43;9.80;;;;;;;16.49;40.53;95945.38;6163862;28;20724;-83
2022/03/30 14:19:07;;;;;;;18.33;13.73;;;;;;;16.21;41.33;95942.88;6163933;28;20233;-82
2022/03/30 14:22:09;;;;;;;16.87;12.23;;;;;;;16.04;41.60;95930.94;6164419;28;20236;-83